sensor_id;sensor_type;location;lat;lon;timestamp;P1;durP1;ratioP1;P2;durP2;ratioP2
3911;SDS011;1971;51.778;10.330;2024-02-21T00:00:25;14.00;;;6.80;;
3911;SDS011;1971;51.778;10.330;2024-02-21T00:02:55;12.83;;;7.10;;
3911;SDS011;1971;51.778;10.330;2024-02-21T00:05:26;11.93;;;6.40;;
3911;SDS011;1971;51.778;10.330;2024-02-21T00:07:58;6.37;;;4.40;;
3911;SDS011;1971;51.778;10.330;2024-02-21T00:10:32;12.27;;;7.60;;
3911;SDS011;1971;51.778;10.330;2024-02-21T00:13:03;8.97;;;6.03;;
3911;SDS011;1971;51.778;10.330;2024-02-21T00:15:33;8.60;;;6.40;;
3911;SDS011;1971;51.778;10.330;2024-02-21T00:18:03;14.23;;;6.93;;
3911;SDS011;1971;51.778;10.330;2024-02-21T00:20:34;14.70;;;6.83;;
3911;SDS011;1971;51.778;10.330;2024-02-21T00:23:04;11.67;;;6.63;;
3911;SDS011;1971;51.778;10.330;2024-02-21T00:25:37;14.53;;;6.83;;
3911;SDS011;1971;51.778;10.330;2024-02-21T00:28:07;9.80;;;4.37;;
3911;SDS011;1971;51.778;10.330;2024-02-21T00:30:38;12.57;;;7.47;;
3911;SDS011;1971;51.778;10.330;2024-02-21T00:33:08;8.73;;;6.57;;
3911;SDS011;1971;51.778;10.330;2024-02-21T00:35:39;11.63;;;7.30;;
3911;SDS011;1971;51.778;10.330;2024-02-21T00:38:09;13.83;;;6.93;;
3911;SDS011;1971;51.778;10.330;2024-02-21T00:40:42;10.60;;;5.70;;
3911;SDS011;1971;51.778;10.330;2024-02-21T00:43:13;12.23;;;6.70;;
3911;SDS011;1971;51.778;10.330;2024-02-21T00:45:44;8.30;;;6.07;;
3911;SDS011;1971;51.778;10.330;2024-02-21T00:48:14;14.33;;;6.60;;
3911;SDS011;1971;51.778;10.330;2024-02-21T00:50:44;11.40;;;7.07;;
3911;SDS011;1971;51.778;10.330;2024-02-21T00:53:14;10.63;;;6.83;;
3911;SDS011;1971;51.778;10.330;2024-02-21T00:55:47;19.03;;;7.90;;
3911;SDS011;1971;51.778;10.330;2024-02-21T00:58:17;15.23;;;8.00;;
3911;SDS011;1971;51.778;10.330;2024-02-21T01:00:48;13.00;;;7.50;;
3911;SDS011;1971;51.778;10.330;2024-02-21T01:03:19;12.33;;;6.73;;
3911;SDS011;1971;51.778;10.330;2024-02-21T01:05:49;11.17;;;7.23;;
3911;SDS011;1971;51.778;10.330;2024-02-21T01:08:19;13.87;;;7.33;;
3911;SDS011;1971;51.778;10.330;2024-02-21T01:10:52;12.30;;;7.87;;
3911;SDS011;1971;51.778;10.330;2024-02-21T01:13:22;10.00;;;7.00;;
3911;SDS011;1971;51.778;10.330;2024-02-21T01:15:53;11.40;;;7.17;;
3911;SDS011;1971;51.778;10.330;2024-02-21T01:18:23;13.43;;;6.80;;
3911;SDS011;1971;51.778;10.330;2024-02-21T01:20:53;15.43;;;5.63;;
3911;SDS011;1971;51.778;10.330;2024-02-21T01:23:23;10.90;;;5.37;;
3911;SDS011;1971;51.778;10.330;2024-02-21T01:25:56;8.60;;;5.10;;
3911;SDS011;1971;51.778;10.330;2024-02-21T01:28:26;9.93;;;6.60;;
3911;SDS011;1971;51.778;10.330;2024-02-21T01:30:57;9.83;;;8.30;;
3911;SDS011;1971;51.778;10.330;2024-02-21T01:33:27;15.67;;;7.97;;
3911;SDS011;1971;51.778;10.330;2024-02-21T01:36:01;16.27;;;8.10;;
3911;SDS011;1971;51.778;10.330;2024-02-21T01:38:33;10.27;;;7.33;;
3911;SDS011;1971;51.778;10.330;2024-02-21T01:41:06;13.43;;;7.80;;
3911;SDS011;1971;51.778;10.330;2024-02-21T01:43:36;11.97;;;8.00;;
3911;SDS011;1971;51.778;10.330;2024-02-21T01:46:07;14.97;;;9.17;;
3911;SDS011;1971;51.778;10.330;2024-02-21T01:48:35;14.10;;;8.70;;
3911;SDS011;1971;51.778;10.330;2024-02-21T01:51:05;7.20;;;5.47;;
3911;SDS011;1971;51.778;10.330;2024-02-21T01:53:36;10.53;;;6.33;;
3911;SDS011;1971;51.778;10.330;2024-02-21T01:56:12;12.83;;;6.47;;
3911;SDS011;1971;51.778;10.330;2024-02-21T01:58:42;16.67;;;9.40;;
3911;SDS011;1971;51.778;10.330;2024-02-21T02:01:13;11.33;;;6.70;;
3911;SDS011;1971;51.778;10.330;2024-02-21T02:03:48;24.63;;;10.47;;
3911;SDS011;1971;51.778;10.330;2024-02-21T02:06:20;17.07;;;9.97;;
3911;SDS011;1971;51.778;10.330;2024-02-21T02:08:50;14.70;;;9.90;;
3911;SDS011;1971;51.778;10.330;2024-02-21T02:11:24;17.97;;;10.10;;
3911;SDS011;1971;51.778;10.330;2024-02-21T02:13:54;14.23;;;10.10;;
3911;SDS011;1971;51.778;10.330;2024-02-21T02:16:24;23.47;;;9.50;;
3911;SDS011;1971;51.778;10.330;2024-02-21T02:18:54;19.80;;;10.17;;
3911;SDS011;1971;51.778;10.330;2024-02-21T02:21:27;17.60;;;11.10;;
3911;SDS011;1971;51.778;10.330;2024-02-21T02:24:02;17.83;;;10.50;;
3911;SDS011;1971;51.778;10.330;2024-02-21T02:26:33;24.97;;;12.37;;
3911;SDS011;1971;51.778;10.330;2024-02-21T02:29:03;17.37;;;10.27;;
3911;SDS011;1971;51.778;10.330;2024-02-21T02:31:33;26.07;;;11.00;;
3911;SDS011;1971;51.778;10.330;2024-02-21T02:34:04;24.80;;;12.67;;
3911;SDS011;1971;51.778;10.330;2024-02-21T02:36:35;62.53;;;16.40;;
3911;SDS011;1971;51.778;10.330;2024-02-21T02:39:08;34.00;;;13.83;;
3911;SDS011;1971;51.778;10.330;2024-02-21T02:41:38;77.93;;;20.37;;
3911;SDS011;1971;51.778;10.330;2024-02-21T02:44:08;47.30;;;16.37;;
3911;SDS011;1971;51.778;10.330;2024-02-21T02:46:39;35.17;;;15.37;;
3911;SDS011;1971;51.778;10.330;2024-02-21T02:49:10;23.83;;;9.63;;
3911;SDS011;1971;51.778;10.330;2024-02-21T02:51:41;18.23;;;8.90;;
3911;SDS011;1971;51.778;10.330;2024-02-21T02:54:14;38.93;;;13.93;;
3911;SDS011;1971;51.778;10.330;2024-02-21T02:56:45;46.00;;;16.80;;
3911;SDS011;1971;51.778;10.330;2024-02-21T02:59:15;14.70;;;9.50;;
3911;SDS011;1971;51.778;10.330;2024-02-21T03:01:45;26.90;;;14.20;;
3911;SDS011;1971;51.778;10.330;2024-02-21T03:04:13;29.17;;;14.30;;
3911;SDS011;1971;51.778;10.330;2024-02-21T03:06:43;35.57;;;15.43;;
3911;SDS011;1971;51.778;10.330;2024-02-21T03:09:16;23.13;;;14.87;;
3911;SDS011;1971;51.778;10.330;2024-02-21T03:11:46;27.43;;;14.67;;
3911;SDS011;1971;51.778;10.330;2024-02-21T03:14:17;20.57;;;13.83;;
3911;SDS011;1971;51.778;10.330;2024-02-21T03:16:47;21.40;;;14.27;;
3911;SDS011;1971;51.778;10.330;2024-02-21T03:19:17;19.30;;;13.67;;
3911;SDS011;1971;51.778;10.330;2024-02-21T03:21:47;20.90;;;12.90;;
3911;SDS011;1971;51.778;10.330;2024-02-21T03:24:20;21.53;;;13.73;;
3911;SDS011;1971;51.778;10.330;2024-02-21T03:26:51;25.10;;;14.00;;
3911;SDS011;1971;51.778;10.330;2024-02-21T03:29:21;29.50;;;15.20;;
3911;SDS011;1971;51.778;10.330;2024-02-21T03:31:52;28.00;;;15.30;;
3911;SDS011;1971;51.778;10.330;2024-02-21T03:34:22;19.97;;;13.30;;
3911;SDS011;1971;51.778;10.330;2024-02-21T03:36:52;21.53;;;10.87;;
3911;SDS011;1971;51.778;10.330;2024-02-21T03:39:25;26.07;;;15.50;;
3911;SDS011;1971;51.778;10.330;2024-02-21T03:41:55;29.03;;;15.17;;
3911;SDS011;1971;51.778;10.330;2024-02-21T03:44:27;20.83;;;15.00;;
3911;SDS011;1971;51.778;10.330;2024-02-21T03:46:57;20.53;;;11.47;;
3911;SDS011;1971;51.778;10.330;2024-02-21T03:49:28;27.17;;;15.07;;
3911;SDS011;1971;51.778;10.330;2024-02-21T03:51:58;21.10;;;14.10;;
3911;SDS011;1971;51.778;10.330;2024-02-21T03:54:31;21.67;;;14.77;;
3911;SDS011;1971;51.778;10.330;2024-02-21T03:57:01;23.27;;;14.47;;
3911;SDS011;1971;51.778;10.330;2024-02-21T03:59:31;17.47;;;9.63;;
3911;SDS011;1971;51.778;10.330;2024-02-21T04:02:02;24.60;;;11.20;;
3911;SDS011;1971;51.778;10.330;2024-02-21T04:04:35;15.80;;;8.47;;
3911;SDS011;1971;51.778;10.330;2024-02-21T04:07:07;20.10;;;13.53;;
3911;SDS011;1971;51.778;10.330;2024-02-21T04:09:39;22.10;;;13.80;;
3911;SDS011;1971;51.778;10.330;2024-02-21T04:12:10;17.00;;;11.20;;
3911;SDS011;1971;51.778;10.330;2024-02-21T04:14:40;22.00;;;13.97;;
3911;SDS011;1971;51.778;10.330;2024-02-21T04:17:13;14.43;;;10.60;;
3911;SDS011;1971;51.778;10.330;2024-02-21T04:19:43;18.03;;;12.97;;
3911;SDS011;1971;51.778;10.330;2024-02-21T04:22:13;23.23;;;13.00;;
3911;SDS011;1971;51.778;10.330;2024-02-21T04:24:46;10.03;;;6.20;;
3911;SDS011;1971;51.778;10.330;2024-02-21T04:27:16;18.73;;;10.27;;
3911;SDS011;1971;51.778;10.330;2024-02-21T04:29:46;15.83;;;7.70;;
3911;SDS011;1971;51.778;10.330;2024-02-21T04:32:17;16.33;;;8.53;;
3911;SDS011;1971;51.778;10.330;2024-02-21T04:34:47;16.73;;;9.47;;
3911;SDS011;1971;51.778;10.330;2024-02-21T04:37:17;14.03;;;8.90;;
3911;SDS011;1971;51.778;10.330;2024-02-21T04:39:50;14.23;;;10.60;;
3911;SDS011;1971;51.778;10.330;2024-02-21T04:42:20;14.83;;;10.87;;
3911;SDS011;1971;51.778;10.330;2024-02-21T04:44:51;14.43;;;11.13;;
3911;SDS011;1971;51.778;10.330;2024-02-21T04:47:22;14.50;;;10.90;;
3911;SDS011;1971;51.778;10.330;2024-02-21T04:49:53;16.10;;;10.97;;
3911;SDS011;1971;51.778;10.330;2024-02-21T04:52:23;14.23;;;10.40;;
3911;SDS011;1971;51.778;10.330;2024-02-21T04:54:56;15.40;;;11.83;;
3911;SDS011;1971;51.778;10.330;2024-02-21T04:57:27;20.03;;;11.77;;
3911;SDS011;1971;51.778;10.330;2024-02-21T04:59:57;15.30;;;10.53;;
3911;SDS011;1971;51.778;10.330;2024-02-21T05:02:27;16.13;;;9.33;;
3911;SDS011;1971;51.778;10.330;2024-02-21T05:04:58;19.17;;;12.20;;
3911;SDS011;1971;51.778;10.330;2024-02-21T05:07:28;17.63;;;11.07;;
3911;SDS011;1971;51.778;10.330;2024-02-21T05:10:01;16.30;;;11.80;;
3911;SDS011;1971;51.778;10.330;2024-02-21T05:12:32;14.20;;;11.60;;
3911;SDS011;1971;51.778;10.330;2024-02-21T05:15:03;17.87;;;11.43;;
3911;SDS011;1971;51.778;10.330;2024-02-21T05:17:34;14.10;;;8.80;;
3911;SDS011;1971;51.778;10.330;2024-02-21T05:20:05;16.53;;;9.43;;
3911;SDS011;1971;51.778;10.330;2024-02-21T05:22:36;14.67;;;10.30;;
3911;SDS011;1971;51.778;10.330;2024-02-21T05:25:10;12.00;;;8.03;;
3911;SDS011;1971;51.778;10.330;2024-02-21T05:27:40;11.50;;;7.37;;
3911;SDS011;1971;51.778;10.330;2024-02-21T05:30:11;15.50;;;9.00;;
3911;SDS011;1971;51.778;10.330;2024-02-21T05:32:42;12.37;;;7.53;;
3911;SDS011;1971;51.778;10.330;2024-02-21T05:35:12;15.00;;;10.03;;
3911;SDS011;1971;51.778;10.330;2024-02-21T05:37:43;15.00;;;10.50;;
3911;SDS011;1971;51.778;10.330;2024-02-21T05:40:16;12.93;;;10.37;;
3911;SDS011;1971;51.778;10.330;2024-02-21T05:42:46;16.80;;;10.50;;
3911;SDS011;1971;51.778;10.330;2024-02-21T05:45:17;15.80;;;10.57;;
3911;SDS011;1971;51.778;10.330;2024-02-21T05:47:48;14.40;;;10.13;;
3911;SDS011;1971;51.778;10.330;2024-02-21T05:50:18;12.67;;;7.07;;
3911;SDS011;1971;51.778;10.330;2024-02-21T05:52:51;15.20;;;10.10;;
3911;SDS011;1971;51.778;10.330;2024-02-21T05:55:24;11.73;;;8.43;;
3911;SDS011;1971;51.778;10.330;2024-02-21T05:57:54;17.20;;;10.63;;
3911;SDS011;1971;51.778;10.330;2024-02-21T06:00:25;12.73;;;10.67;;
3911;SDS011;1971;51.778;10.330;2024-02-21T06:02:55;15.07;;;11.37;;
3911;SDS011;1971;51.778;10.330;2024-02-21T06:05:25;15.13;;;7.37;;
3911;SDS011;1971;51.778;10.330;2024-02-21T06:07:56;17.30;;;10.90;;
3911;SDS011;1971;51.778;10.330;2024-02-21T06:10:29;16.63;;;10.90;;
3911;SDS011;1971;51.778;10.330;2024-02-21T06:12:59;11.50;;;10.20;;
3911;SDS011;1971;51.778;10.330;2024-02-21T06:15:29;21.57;;;12.07;;
3911;SDS011;1971;51.778;10.330;2024-02-21T06:17:59;15.90;;;11.30;;
3911;SDS011;1971;51.778;10.330;2024-02-21T06:20:30;14.87;;;11.07;;
3911;SDS011;1971;51.778;10.330;2024-02-21T06:23:02;13.47;;;10.03;;
3911;SDS011;1971;51.778;10.330;2024-02-21T06:25:35;21.57;;;11.00;;
3911;SDS011;1971;51.778;10.330;2024-02-21T06:28:05;12.00;;;7.50;;
3911;SDS011;1971;51.778;10.330;2024-02-21T06:30:36;13.57;;;10.50;;
3911;SDS011;1971;51.778;10.330;2024-02-21T06:33:06;20.60;;;8.13;;
3911;SDS011;1971;51.778;10.330;2024-02-21T06:35:36;11.10;;;7.63;;
3911;SDS011;1971;51.778;10.330;2024-02-21T06:38:09;11.83;;;10.27;;
3911;SDS011;1971;51.778;10.330;2024-02-21T06:40:41;12.33;;;8.70;;
3911;SDS011;1971;51.778;10.330;2024-02-21T06:43:17;13.17;;;10.63;;
3911;SDS011;1971;51.778;10.330;2024-02-21T06:45:49;11.90;;;9.93;;
3911;SDS011;1971;51.778;10.330;2024-02-21T06:48:21;15.00;;;11.10;;
3911;SDS011;1971;51.778;10.330;2024-02-21T06:50:51;15.10;;;10.80;;
3911;SDS011;1971;51.778;10.330;2024-02-21T06:53:21;20.20;;;11.00;;
3911;SDS011;1971;51.778;10.330;2024-02-21T06:55:54;15.07;;;11.37;;
3911;SDS011;1971;51.778;10.330;2024-02-21T06:58:24;14.50;;;10.23;;
3911;SDS011;1971;51.778;10.330;2024-02-21T07:00:55;14.23;;;11.30;;
3911;SDS011;1971;51.778;10.330;2024-02-21T07:03:25;13.73;;;10.40;;
3911;SDS011;1971;51.778;10.330;2024-02-21T07:05:55;12.87;;;10.97;;
3911;SDS011;1971;51.778;10.330;2024-02-21T07:08:26;16.40;;;10.87;;
3911;SDS011;1971;51.778;10.330;2024-02-21T07:10:59;13.70;;;10.47;;
3911;SDS011;1971;51.778;10.330;2024-02-21T07:13:29;12.33;;;10.43;;
3911;SDS011;1971;51.778;10.330;2024-02-21T07:15:59;14.50;;;10.57;;
3911;SDS011;1971;51.778;10.330;2024-02-21T07:18:29;13.97;;;10.93;;
3911;SDS011;1971;51.778;10.330;2024-02-21T07:20:59;13.80;;;11.00;;
3911;SDS011;1971;51.778;10.330;2024-02-21T07:23:29;12.83;;;10.77;;
3911;SDS011;1971;51.778;10.330;2024-02-21T07:26:02;15.07;;;9.77;;
3911;SDS011;1971;51.778;10.330;2024-02-21T07:28:34;10.87;;;7.50;;
3911;SDS011;1971;51.778;10.330;2024-02-21T07:31:04;9.60;;;6.83;;
3911;SDS011;1971;51.778;10.330;2024-02-21T07:33:34;12.20;;;7.80;;
3911;SDS011;1971;51.778;10.330;2024-02-21T07:36:05;14.33;;;10.83;;
3911;SDS011;1971;51.778;10.330;2024-02-21T07:38:37;15.73;;;10.73;;
3911;SDS011;1971;51.778;10.330;2024-02-21T07:41:10;14.80;;;11.20;;
3911;SDS011;1971;51.778;10.330;2024-02-21T07:43:40;10.80;;;9.43;;
3911;SDS011;1971;51.778;10.330;2024-02-21T07:46:10;12.37;;;9.00;;
3911;SDS011;1971;51.778;10.330;2024-02-21T07:48:41;12.53;;;11.23;;
3911;SDS011;1971;51.778;10.330;2024-02-21T07:51:11;11.93;;;9.53;;
3911;SDS011;1971;51.778;10.330;2024-02-21T07:53:43;13.90;;;10.43;;
3911;SDS011;1971;51.778;10.330;2024-02-21T07:56:18;11.00;;;7.30;;
3911;SDS011;1971;51.778;10.330;2024-02-21T07:58:48;13.17;;;7.47;;
3911;SDS011;1971;51.778;10.330;2024-02-21T08:01:18;13.67;;;9.37;;
3911;SDS011;1971;51.778;10.330;2024-02-21T08:03:49;11.93;;;10.30;;
3911;SDS011;1971;51.778;10.330;2024-02-21T08:06:19;11.47;;;10.37;;
3911;SDS011;1971;51.778;10.330;2024-02-21T08:08:49;16.90;;;10.17;;
3911;SDS011;1971;51.778;10.330;2024-02-21T08:11:22;15.03;;;10.83;;
3911;SDS011;1971;51.778;10.330;2024-02-21T08:13:52;26.67;;;9.83;;
3911;SDS011;1971;51.778;10.330;2024-02-21T08:16:23;14.90;;;7.23;;
3911;SDS011;1971;51.778;10.330;2024-02-21T08:18:53;10.30;;;7.83;;
3911;SDS011;1971;51.778;10.330;2024-02-21T08:21:24;10.03;;;7.20;;
3911;SDS011;1971;51.778;10.330;2024-02-21T08:23:55;8.07;;;6.20;;
3911;SDS011;1971;51.778;10.330;2024-02-21T08:26:28;13.27;;;9.57;;
3911;SDS011;1971;51.778;10.330;2024-02-21T08:28:58;11.40;;;8.90;;
3911;SDS011;1971;51.778;10.330;2024-02-21T08:31:28;12.10;;;10.07;;
3911;SDS011;1971;51.778;10.330;2024-02-21T08:34:01;12.77;;;9.57;;
3911;SDS011;1971;51.778;10.330;2024-02-21T08:36:32;12.30;;;9.00;;
3911;SDS011;1971;51.778;10.330;2024-02-21T08:39:03;13.60;;;9.70;;
3911;SDS011;1971;51.778;10.330;2024-02-21T08:41:37;11.60;;;9.83;;
3911;SDS011;1971;51.778;10.330;2024-02-21T08:44:22;11.30;;;9.30;;
3911;SDS011;1971;51.778;10.330;2024-02-21T08:46:54;10.77;;;9.47;;
3911;SDS011;1971;51.778;10.330;2024-02-21T08:49:24;11.23;;;9.67;;
3911;SDS011;1971;51.778;10.330;2024-02-21T08:52:00;13.33;;;9.67;;
3911;SDS011;1971;51.778;10.330;2024-02-21T08:54:30;9.57;;;8.60;;
3911;SDS011;1971;51.778;10.330;2024-02-21T08:57:03;12.10;;;8.77;;
3911;SDS011;1971;51.778;10.330;2024-02-21T08:59:34;10.60;;;9.30;;
3911;SDS011;1971;51.778;10.330;2024-02-21T09:02:04;11.17;;;8.70;;
3911;SDS011;1971;51.778;10.330;2024-02-21T09:04:35;15.73;;;9.20;;
3911;SDS011;1971;51.778;10.330;2024-02-21T09:07:05;10.07;;;9.07;;
3911;SDS011;1971;51.778;10.330;2024-02-21T09:09:36;10.80;;;8.50;;
3911;SDS011;1971;51.778;10.330;2024-02-21T09:12:10;15.47;;;8.73;;
3911;SDS011;1971;51.778;10.330;2024-02-21T09:14:42;9.27;;;7.50;;
3911;SDS011;1971;51.778;10.330;2024-02-21T09:17:14;11.03;;;8.47;;
3911;SDS011;1971;51.778;10.330;2024-02-21T09:19:44;11.07;;;8.17;;
3911;SDS011;1971;51.778;10.330;2024-02-21T09:22:14;9.60;;;7.57;;
3911;SDS011;1971;51.778;10.330;2024-02-21T09:24:44;9.93;;;7.37;;
3911;SDS011;1971;51.778;10.330;2024-02-21T09:27:17;9.80;;;8.60;;
3911;SDS011;1971;51.778;10.330;2024-02-21T09:29:47;11.33;;;8.50;;
3911;SDS011;1971;51.778;10.330;2024-02-21T09:32:17;9.07;;;8.07;;
3911;SDS011;1971;51.778;10.330;2024-02-21T09:34:48;15.63;;;7.80;;
3911;SDS011;1971;51.778;10.330;2024-02-21T09:37:26;8.60;;;7.80;;
3911;SDS011;1971;51.778;10.330;2024-02-21T09:39:56;8.63;;;7.57;;
3911;SDS011;1971;51.778;10.330;2024-02-21T09:42:30;8.53;;;6.63;;
3911;SDS011;1971;51.778;10.330;2024-02-21T09:45:08;7.67;;;6.53;;
3911;SDS011;1971;51.778;10.330;2024-02-21T09:47:48;10.43;;;7.50;;
3911;SDS011;1971;51.778;10.330;2024-02-21T09:50:27;9.87;;;7.87;;
3911;SDS011;1971;51.778;10.330;2024-02-21T09:53:00;9.50;;;7.20;;
3911;SDS011;1971;51.778;10.330;2024-02-21T09:55:33;7.23;;;6.37;;
3911;SDS011;1971;51.778;10.330;2024-02-21T09:58:09;8.10;;;6.17;;
3911;SDS011;1971;51.778;10.330;2024-02-21T10:00:40;9.10;;;7.00;;
3911;SDS011;1971;51.778;10.330;2024-02-21T10:03:11;6.13;;;5.53;;
3911;SDS011;1971;51.778;10.330;2024-02-21T10:05:46;7.03;;;5.80;;
3911;SDS011;1971;51.778;10.330;2024-02-21T10:08:18;6.00;;;5.30;;
3911;SDS011;1971;51.778;10.330;2024-02-21T10:10:49;6.30;;;5.70;;
3911;SDS011;1971;51.778;10.330;2024-02-21T10:13:27;6.30;;;5.67;;
3911;SDS011;1971;51.778;10.330;2024-02-21T10:16:04;7.70;;;6.20;;
3911;SDS011;1971;51.778;10.330;2024-02-21T10:18:35;7.13;;;5.53;;
3911;SDS011;1971;51.778;10.330;2024-02-21T10:21:06;6.53;;;5.13;;
3911;SDS011;1971;51.778;10.330;2024-02-21T10:23:43;6.77;;;5.30;;
3911;SDS011;1971;51.778;10.330;2024-02-21T10:26:14;6.03;;;4.33;;
3911;SDS011;1971;51.778;10.330;2024-02-21T10:28:47;6.33;;;5.73;;
3911;SDS011;1971;51.778;10.330;2024-02-21T10:31:22;6.03;;;5.03;;
3911;SDS011;1971;51.778;10.330;2024-02-21T10:33:54;6.00;;;5.40;;
3911;SDS011;1971;51.778;10.330;2024-02-21T10:36:25;10.93;;;5.10;;
3911;SDS011;1971;51.778;10.330;2024-02-21T10:38:55;8.10;;;5.40;;
3911;SDS011;1971;51.778;10.330;2024-02-21T10:41:26;8.10;;;5.60;;
3911;SDS011;1971;51.778;10.330;2024-02-21T10:44:00;6.00;;;5.40;;
3911;SDS011;1971;51.778;10.330;2024-02-21T10:46:33;6.07;;;5.30;;
3911;SDS011;1971;51.778;10.330;2024-02-21T10:49:07;7.03;;;5.00;;
3911;SDS011;1971;51.778;10.330;2024-02-21T10:51:43;7.10;;;5.67;;
3911;SDS011;1971;51.778;10.330;2024-02-21T10:54:19;6.00;;;5.10;;
3911;SDS011;1971;51.778;10.330;2024-02-21T10:56:59;5.20;;;4.70;;
3911;SDS011;1971;51.778;10.330;2024-02-21T10:59:34;5.57;;;4.57;;
3911;SDS011;1971;51.778;10.330;2024-02-21T11:02:06;5.00;;;4.27;;
3911;SDS011;1971;51.778;10.330;2024-02-21T11:04:37;6.33;;;5.03;;
3911;SDS011;1971;51.778;10.330;2024-02-21T11:07:08;8.73;;;5.70;;
3911;SDS011;1971;51.778;10.330;2024-02-21T11:09:38;4.30;;;3.90;;
3911;SDS011;1971;51.778;10.330;2024-02-21T11:12:08;9.93;;;4.40;;
3911;SDS011;1971;51.778;10.330;2024-02-21T11:14:41;7.20;;;4.87;;
3911;SDS011;1971;51.778;10.330;2024-02-21T11:17:14;5.27;;;4.80;;
3911;SDS011;1971;51.778;10.330;2024-02-21T11:19:45;6.97;;;5.60;;
3911;SDS011;1971;51.778;10.330;2024-02-21T11:22:16;5.97;;;5.37;;
3911;SDS011;1971;51.778;10.330;2024-02-21T11:24:50;6.30;;;4.70;;
3911;SDS011;1971;51.778;10.330;2024-02-21T11:27:20;5.20;;;4.70;;
3911;SDS011;1971;51.778;10.330;2024-02-21T11:29:57;5.60;;;5.03;;
3911;SDS011;1971;51.778;10.330;2024-02-21T11:32:27;7.57;;;5.60;;
3911;SDS011;1971;51.778;10.330;2024-02-21T11:34:58;6.10;;;4.80;;
3911;SDS011;1971;51.778;10.330;2024-02-21T11:37:32;6.17;;;5.50;;
3911;SDS011;1971;51.778;10.330;2024-02-21T11:40:04;4.97;;;4.47;;
3911;SDS011;1971;51.778;10.330;2024-02-21T11:42:38;11.30;;;5.80;;
3911;SDS011;1971;51.778;10.330;2024-02-21T11:45:11;6.60;;;4.90;;
3911;SDS011;1971;51.778;10.330;2024-02-21T11:47:44;7.83;;;5.10;;
3911;SDS011;1971;51.778;10.330;2024-02-21T11:50:15;7.33;;;5.90;;
3911;SDS011;1971;51.778;10.330;2024-02-21T11:52:48;7.60;;;4.97;;
3911;SDS011;1971;51.778;10.330;2024-02-21T11:55:18;6.63;;;5.57;;
3911;SDS011;1971;51.778;10.330;2024-02-21T11:57:49;6.93;;;4.77;;
3911;SDS011;1971;51.778;10.330;2024-02-21T12:00:22;6.80;;;5.20;;
3911;SDS011;1971;51.778;10.330;2024-02-21T12:02:54;4.80;;;4.40;;
3911;SDS011;1971;51.778;10.330;2024-02-21T12:05:29;7.43;;;5.47;;
3911;SDS011;1971;51.778;10.330;2024-02-21T12:08:00;5.13;;;4.53;;
3911;SDS011;1971;51.778;10.330;2024-02-21T12:10:30;7.20;;;4.90;;
3911;SDS011;1971;51.778;10.330;2024-02-21T12:13:06;6.23;;;3.70;;
3911;SDS011;1971;51.778;10.330;2024-02-21T12:15:40;6.23;;;4.90;;
3911;SDS011;1971;51.778;10.330;2024-02-21T12:18:10;6.90;;;4.87;;
3911;SDS011;1971;51.778;10.330;2024-02-21T12:20:40;6.80;;;4.97;;
3911;SDS011;1971;51.778;10.330;2024-02-21T12:23:12;7.80;;;5.30;;
3911;SDS011;1971;51.778;10.330;2024-02-21T12:25:43;4.67;;;4.20;;
3911;SDS011;1971;51.778;10.330;2024-02-21T12:28:13;5.47;;;4.30;;
3911;SDS011;1971;51.778;10.330;2024-02-21T12:30:46;5.67;;;4.37;;
3911;SDS011;1971;51.778;10.330;2024-02-21T12:33:17;5.63;;;4.70;;
3911;SDS011;1971;51.778;10.330;2024-02-21T12:35:47;5.30;;;4.13;;
3911;SDS011;1971;51.778;10.330;2024-02-21T12:38:17;5.20;;;4.70;;
3911;SDS011;1971;51.778;10.330;2024-02-21T12:40:47;5.67;;;4.67;;
3911;SDS011;1971;51.778;10.330;2024-02-21T12:43:17;4.50;;;4.00;;
3911;SDS011;1971;51.778;10.330;2024-02-21T12:45:51;5.47;;;4.50;;
3911;SDS011;1971;51.778;10.330;2024-02-21T12:48:22;6.63;;;4.60;;
3911;SDS011;1971;51.778;10.330;2024-02-21T12:50:52;5.30;;;3.90;;
3911;SDS011;1971;51.778;10.330;2024-02-21T12:53:22;4.57;;;4.17;;
3911;SDS011;1971;51.778;10.330;2024-02-21T12:55:59;4.50;;;4.10;;
3911;SDS011;1971;51.778;10.330;2024-02-21T12:58:32;5.07;;;3.73;;
3911;SDS011;1971;51.778;10.330;2024-02-21T13:01:04;4.50;;;4.10;;
3911;SDS011;1971;51.778;10.330;2024-02-21T13:03:34;5.37;;;4.20;;
3911;SDS011;1971;51.778;10.330;2024-02-21T13:06:05;4.23;;;3.57;;
3911;SDS011;1971;51.778;10.330;2024-02-21T13:08:37;5.30;;;4.17;;
3911;SDS011;1971;51.778;10.330;2024-02-21T13:11:07;9.00;;;3.80;;
3911;SDS011;1971;51.778;10.330;2024-02-21T13:13:38;4.90;;;3.30;;
3911;SDS011;1971;51.778;10.330;2024-02-21T13:16:11;7.47;;;4.40;;
3911;SDS011;1971;51.778;10.330;2024-02-21T13:18:41;3.20;;;2.90;;
3911;SDS011;1971;51.778;10.330;2024-02-21T13:21:14;3.83;;;3.40;;
3911;SDS011;1971;51.778;10.330;2024-02-21T13:23:44;4.20;;;3.40;;
3911;SDS011;1971;51.778;10.330;2024-02-21T13:26:14;4.90;;;3.27;;
3911;SDS011;1971;51.778;10.330;2024-02-21T13:28:45;3.27;;;2.90;;
3911;SDS011;1971;51.778;10.330;2024-02-21T13:31:18;4.07;;;3.37;;
3911;SDS011;1971;51.778;10.330;2024-02-21T13:33:48;4.57;;;3.53;;
3911;SDS011;1971;51.778;10.330;2024-02-21T13:36:19;3.70;;;3.40;;
3911;SDS011;1971;51.778;10.330;2024-02-21T13:38:48;3.83;;;3.07;;
3911;SDS011;1971;51.778;10.330;2024-02-21T13:41:19;3.53;;;3.23;;
3911;SDS011;1971;51.778;10.330;2024-02-21T13:43:50;3.90;;;3.13;;
3911;SDS011;1971;51.778;10.330;2024-02-21T13:46:23;4.60;;;4.03;;
3911;SDS011;1971;51.778;10.330;2024-02-21T13:48:54;4.33;;;2.83;;
3911;SDS011;1971;51.778;10.330;2024-02-21T13:51:34;5.20;;;4.33;;
3911;SDS011;1971;51.778;10.330;2024-02-21T13:54:07;5.97;;;3.23;;
3911;SDS011;1971;51.778;10.330;2024-02-21T13:56:41;6.40;;;3.57;;
3911;SDS011;1971;51.778;10.330;2024-02-21T13:59:11;3.93;;;3.60;;
3911;SDS011;1971;51.778;10.330;2024-02-21T14:01:45;5.57;;;4.43;;
3911;SDS011;1971;51.778;10.330;2024-02-21T14:04:16;5.80;;;3.93;;
3911;SDS011;1971;51.778;10.330;2024-02-21T14:06:46;4.33;;;3.93;;
3911;SDS011;1971;51.778;10.330;2024-02-21T14:09:17;5.63;;;4.23;;
3911;SDS011;1971;51.778;10.330;2024-02-21T14:11:48;6.93;;;4.07;;
3911;SDS011;1971;51.778;10.330;2024-02-21T14:14:18;8.03;;;4.73;;
3911;SDS011;1971;51.778;10.330;2024-02-21T14:16:51;5.43;;;4.10;;
3911;SDS011;1971;51.778;10.330;2024-02-21T14:19:23;4.97;;;4.47;;
3911;SDS011;1971;51.778;10.330;2024-02-21T14:21:53;7.47;;;5.57;;
3911;SDS011;1971;51.778;10.330;2024-02-21T14:24:23;5.10;;;4.37;;
3911;SDS011;1971;51.778;10.330;2024-02-21T14:26:54;5.73;;;4.77;;
3911;SDS011;1971;51.778;10.330;2024-02-21T14:29:25;5.50;;;4.97;;
3911;SDS011;1971;51.778;10.330;2024-02-21T14:32:00;7.20;;;4.70;;
3911;SDS011;1971;51.778;10.330;2024-02-21T14:34:32;8.73;;;5.20;;
3911;SDS011;1971;51.778;10.330;2024-02-21T14:37:02;7.73;;;4.20;;
3911;SDS011;1971;51.778;10.330;2024-02-21T14:39:33;5.33;;;4.80;;
3911;SDS011;1971;51.778;10.330;2024-02-21T14:42:03;5.40;;;4.57;;
3911;SDS011;1971;51.778;10.330;2024-02-21T14:44:34;6.17;;;4.80;;
3911;SDS011;1971;51.778;10.330;2024-02-21T14:47:07;6.10;;;4.97;;
3911;SDS011;1971;51.778;10.330;2024-02-21T14:49:37;7.57;;;5.03;;
3911;SDS011;1971;51.778;10.330;2024-02-21T14:52:07;6.30;;;4.63;;
3911;SDS011;1971;51.778;10.330;2024-02-21T14:54:37;5.07;;;4.27;;
3911;SDS011;1971;51.778;10.330;2024-02-21T14:57:11;15.77;;;5.40;;
3911;SDS011;1971;51.778;10.330;2024-02-21T14:59:41;5.17;;;4.67;;
3911;SDS011;1971;51.778;10.330;2024-02-21T15:02:13;8.80;;;4.70;;
3911;SDS011;1971;51.778;10.330;2024-02-21T15:04:44;7.70;;;5.00;;
3911;SDS011;1971;51.778;10.330;2024-02-21T15:07:14;5.17;;;4.67;;
3911;SDS011;1971;51.778;10.330;2024-02-21T15:09:46;7.03;;;4.63;;
3911;SDS011;1971;51.778;10.330;2024-02-21T15:12:17;7.57;;;4.63;;